sensor_id;sensor_type;location;lat;lon;timestamp;pressure;altitude;pressure_sealevel;temperature;humidity
61474;BME280;53694;49.784;30.150;2023-04-24T00:00:52;99521.61;;;11.43;59.13
61474;BME280;53694;49.784;30.150;2023-04-24T00:01:53;99529.42;;;11.41;59.37
61474;BME280;53694;49.784;30.150;2023-04-24T00:02:55;99518.36;;;11.38;59.32
61474;BME280;53694;49.784;30.150;2023-04-24T00:03:57;99517.52;;;11.34;59.04
61474;BME280;53694;49.784;30.150;2023-04-24T00:04:59;99518.94;;;11.24;59.07
61474;BME280;53694;49.784;30.150;2023-04-24T00:06:01;99518.94;;;11.24;59.07
61474;BME280;53694;49.784;30.150;2023-04-24T00:07:02;99522.00;;;11.19;59.09
61474;BME280;53694;49.784;30.150;2023-04-24T00:08:04;99515.66;;;11.15;59.43
61474;BME280;53694;49.784;30.150;2023-04-24T00:09:05;99519.13;;;11.12;59.39
61474;BME280;53694;49.784;30.150;2023-04-24T00:10:08;99515.53;;;11.08;59.38
61474;BME280;53694;49.784;30.150;2023-04-24T00:11:10;99519.03;;;11.05;59.67
61474;BME280;53694;49.784;30.150;2023-04-24T00:12:12;99519.76;;;11.01;60.09
61474;BME280;53694;49.784;30.150;2023-04-24T00:13:13;99508.29;;;10.96;60.62
61474;BME280;53694;49.784;30.150;2023-04-24T00:14:15;99520.07;;;10.96;61.61
61474;BME280;53694;49.784;30.150;2023-04-24T00:15:17;99518.84;;;10.94;61.99
61474;BME280;53694;49.784;30.150;2023-04-24T00:16:19;99521.96;;;10.92;62.09
61474;BME280;53694;49.784;30.150;2023-04-24T00:17:20;99520.73;;;10.90;62.33
61474;BME280;53694;49.784;30.150;2023-04-24T00:18:22;99518.70;;;10.87;62.77
61474;BME280;53694;49.784;30.150;2023-04-24T00:19:24;99521.41;;;10.83;63.25
61474;BME280;53694;49.784;30.150;2023-04-24T00:20:25;99522.13;;;10.80;63.64
61474;BME280;53694;49.784;30.150;2023-04-24T00:21:27;99521.69;;;10.78;64.96
61474;BME280;53694;49.784;30.150;2023-04-24T00:22:29;99519.70;;;10.75;65.24
61474;BME280;53694;49.784;30.150;2023-04-24T00:23:30;99525.91;;;10.72;66.23
61474;BME280;53694;49.784;30.150;2023-04-24T00:24:32;99519.18;;;10.69;66.92
61474;BME280;53694;49.784;30.150;2023-04-24T00:25:33;99517.97;;;10.67;67.72
61474;BME280;53694;49.784;30.150;2023-04-24T00:26:35;99514.78;;;10.65;67.98
61474;BME280;53694;49.784;30.150;2023-04-24T00:27:37;99523.02;;;10.65;68.02
61474;BME280;53694;49.784;30.150;2023-04-24T00:28:38;99512.03;;;10.65;68.26
61474;BME280;53694;49.784;30.150;2023-04-24T00:29:40;99517.11;;;10.63;68.20
61474;BME280;53694;49.784;30.150;2023-04-24T00:30:42;99510.02;;;10.62;68.09
61474;BME280;53694;49.784;30.150;2023-04-24T00:31:43;99512.34;;;10.60;67.55
61474;BME280;53694;49.784;30.150;2023-04-24T00:32:45;99505.61;;;10.57;67.32
61474;BME280;53694;49.784;30.150;2023-04-24T00:33:46;99505.58;;;10.54;66.99
61474;BME280;53694;49.784;30.150;2023-04-24T00:34:48;99511.34;;;10.48;67.18
61474;BME280;53694;49.784;30.150;2023-04-24T00:35:49;99514.38;;;10.43;67.15
61474;BME280;53694;49.784;30.150;2023-04-24T00:36:51;99513.52;;;10.39;67.75
61474;BME280;53694;49.784;30.150;2023-04-24T00:37:52;99506.75;;;10.33;68.06
61474;BME280;53694;49.784;30.150;2023-04-24T00:38:54;99513.33;;;10.29;66.61
61474;BME280;53694;49.784;30.150;2023-04-24T00:39:56;99509.34;;;10.26;67.08
61474;BME280;53694;49.784;30.150;2023-04-24T00:40:58;99515.99;;;10.25;66.94
61474;BME280;53694;49.784;30.150;2023-04-24T00:42:00;99510.81;;;10.23;67.22
61474;BME280;53694;49.784;30.150;2023-04-24T00:43:01;99513.94;;;10.22;66.83
61474;BME280;53694;49.784;30.150;2023-04-24T00:44:03;99511.19;;;10.22;67.78
61474;BME280;53694;49.784;30.150;2023-04-24T00:45:06;99515.44;;;10.19;67.26
61474;BME280;53694;49.784;30.150;2023-04-24T00:46:08;99514.23;;;10.17;67.03
61474;BME280;53694;49.784;30.150;2023-04-24T00:47:11;99508.30;;;10.15;67.19
61474;BME280;53694;49.784;30.150;2023-04-24T00:48:14;99503.55;;;10.12;67.00
61474;BME280;53694;49.784;30.150;2023-04-24T00:49:16;99509.03;;;10.12;67.09
61474;BME280;53694;49.784;30.150;2023-04-24T00:50:18;99510.17;;;10.11;66.92
61474;BME280;53694;49.784;30.150;2023-04-24T00:51:22;99512.91;;;10.11;66.77
61474;BME280;53694;49.784;30.150;2023-04-24T00:52:23;99507.42;;;10.11;67.99
61474;BME280;53694;49.784;30.150;2023-04-24T00:53:25;99501.22;;;10.14;68.93
61474;BME280;53694;49.784;30.150;2023-04-24T00:54:27;99506.00;;;10.17;68.18
61474;BME280;53694;49.784;30.150;2023-04-24T00:55:28;99501.30;;;10.17;68.03
61474;BME280;53694;49.784;30.150;2023-04-24T00:56:30;99501.30;;;10.17;67.53
61474;BME280;53694;49.784;30.150;2023-04-24T00:57:32;99507.16;;;10.16;67.38
61474;BME280;53694;49.784;30.150;2023-04-24T00:58:34;99509.45;;;10.14;67.13
61474;BME280;53694;49.784;30.150;2023-04-24T00:59:35;99508.25;;;10.11;67.01
61474;BME280;53694;49.784;30.150;2023-04-24T01:00:38;99516.03;;;10.09;67.15
61474;BME280;53694;49.784;30.150;2023-04-24T01:01:40;99506.22;;;10.08;67.45
61474;BME280;53694;49.784;30.150;2023-04-24T01:02:43;99505.77;;;10.06;67.65
61474;BME280;53694;49.784;30.150;2023-04-24T01:03:45;99504.98;;;10.06;67.96
61474;BME280;53694;49.784;30.150;2023-04-24T01:04:47;99504.98;;;10.06;68.22
61474;BME280;53694;49.784;30.150;2023-04-24T01:05:49;99504.98;;;10.06;68.94
61474;BME280;53694;49.784;30.150;2023-04-24T01:06:51;99510.91;;;10.08;69.13
61474;BME280;53694;49.784;30.150;2023-04-24T01:07:53;99505.05;;;10.09;69.54
61474;BME280;53694;49.784;30.150;2023-04-24T01:08:55;99497.61;;;10.10;69.21
61474;BME280;53694;49.784;30.150;2023-04-24T01:09:57;99502.76;;;10.11;69.40
61474;BME280;53694;49.784;30.150;2023-04-24T01:10:58;99502.39;;;10.13;69.08
61474;BME280;53694;49.784;30.150;2023-04-24T01:12:01;99501.22;;;10.14;68.77
61474;BME280;53694;49.784;30.150;2023-04-24T01:13:03;99504.41;;;10.16;68.72
61474;BME280;53694;49.784;30.150;2023-04-24T01:14:06;99500.88;;;10.15;68.34
61474;BME280;53694;49.784;30.150;2023-04-24T01:15:08;99503.63;;;10.15;68.17
61474;BME280;53694;49.784;30.150;2023-04-24T01:16:12;99492.98;;;10.14;68.37
61474;BME280;53694;49.784;30.150;2023-04-24T01:17:14;99505.13;;;10.13;68.43
61474;BME280;53694;49.784;30.150;2023-04-24T01:18:16;99504.68;;;10.11;68.16
61474;BME280;53694;49.784;30.150;2023-04-24T01:19:18;99495.66;;;10.10;68.65
61474;BME280;53694;49.784;30.150;2023-04-24T01:20:20;99501.14;;;10.10;68.88
61474;BME280;53694;49.784;30.150;2023-04-24T01:21:23;99505.84;;;10.10;68.66
61474;BME280;53694;49.784;30.150;2023-04-24T01:22:27;99504.27;;;10.09;68.74
61474;BME280;53694;49.784;30.150;2023-04-24T01:23:28;99503.81;;;10.07;68.21
61474;BME280;53694;49.784;30.150;2023-04-24T01:24:30;99504.98;;;10.06;68.17
61474;BME280;53694;49.784;30.150;2023-04-24T01:25:32;99497.11;;;10.04;69.50
61474;BME280;53694;49.784;30.150;2023-04-24T01:26:34;99505.34;;;10.04;69.60
61474;BME280;53694;49.784;30.150;2023-04-24T01:27:36;99496.33;;;10.04;69.02
61474;BME280;53694;49.784;30.150;2023-04-24T01:28:37;99503.31;;;10.01;68.79
61474;BME280;53694;49.784;30.150;2023-04-24T01:29:39;99501.73;;;10.00;68.84
61474;BME280;53694;49.784;30.150;2023-04-24T01:30:41;99497.75;;;9.97;69.00
61474;BME280;53694;49.784;30.150;2023-04-24T01:31:43;99498.49;;;9.94;69.42
61474;BME280;53694;49.784;30.150;2023-04-24T01:32:45;99500.41;;;9.94;69.59
61474;BME280;53694;49.784;30.150;2023-04-24T01:33:47;99502.37;;;9.93;70.03
61474;BME280;53694;49.784;30.150;2023-04-24T01:34:49;99503.90;;;9.91;70.25
61474;BME280;53694;49.784;30.150;2023-04-24T01:35:52;99499.13;;;9.88;70.45
61474;BME280;53694;49.784;30.150;2023-04-24T01:36:53;99505.11;;;9.93;70.52
61474;BME280;53694;49.784;30.150;2023-04-24T01:37:55;99503.55;;;10.12;70.11
61474;BME280;53694;49.784;30.150;2023-04-24T01:38:57;99501.03;;;10.42;69.70
61474;BME280;53694;49.784;30.150;2023-04-24T01:39:59;99504.80;;;10.76;68.95
61474;BME280;53694;49.784;30.150;2023-04-24T01:41:01;99503.88;;;11.14;68.48
61474;BME280;53694;49.784;30.150;2023-04-24T01:42:02;99498.91;;;11.50;67.83
61474;BME280;53694;49.784;30.150;2023-04-24T01:43:04;99499.27;;;11.75;67.50
61474;BME280;53694;49.784;30.150;2023-04-24T01:44:06;99497.06;;;11.84;67.40
61474;BME280;53694;49.784;30.150;2023-04-24T01:45:10;99498.67;;;11.85;66.96
61474;BME280;53694;49.784;30.150;2023-04-24T01:46:12;99503.30;;;11.81;66.44
61474;BME280;53694;49.784;30.150;2023-04-24T01:47:14;99497.63;;;11.70;66.36
61474;BME280;53694;49.784;30.150;2023-04-24T01:48:16;99499.81;;;11.58;66.34
61474;BME280;53694;49.784;30.150;2023-04-24T01:49:18;99499.61;;;11.43;66.57
61474;BME280;53694;49.784;30.150;2023-04-24T01:50:19;99493.16;;;11.32;67.72
61474;BME280;53694;49.784;30.150;2023-04-24T01:51:21;99496.09;;;11.20;67.66
61474;BME280;53694;49.784;30.150;2023-04-24T01:52:23;99491.23;;;11.10;67.94
61474;BME280;53694;49.784;30.150;2023-04-24T01:53:25;99497.33;;;10.99;68.66
61474;BME280;53694;49.784;30.150;2023-04-24T01:54:26;99495.63;;;10.91;68.65
61474;BME280;53694;49.784;30.150;2023-04-24T01:55:29;99491.61;;;10.85;68.34
61474;BME280;53694;49.784;30.150;2023-04-24T01:56:33;99496.97;;;10.78;68.01
61474;BME280;53694;49.784;30.150;2023-04-24T01:57:35;99487.02;;;10.70;67.41
61474;BME280;53694;49.784;30.150;2023-04-24T01:58:37;99490.37;;;10.60;65.25
61474;BME280;53694;49.784;30.150;2023-04-24T01:59:38;99482.37;;;10.51;63.59
61474;BME280;53694;49.784;30.150;2023-04-24T02:00:40;99479.14;;;10.45;62.80
61474;BME280;53694;49.784;30.150;2023-04-24T02:01:41;99478.28;;;10.41;62.38
61474;BME280;53694;49.784;30.150;2023-04-24T02:02:44;99471.14;;;10.37;61.31
61474;BME280;53694;49.784;30.150;2023-04-24T02:03:46;99476.18;;;10.35;60.84
61474;BME280;53694;49.784;30.150;2023-04-24T02:04:48;99474.94;;;10.32;59.71
61474;BME280;53694;49.784;30.150;2023-04-24T02:05:50;99472.20;;;10.32;60.12
61474;BME280;53694;49.784;30.150;2023-04-24T02:06:51;99480.88;;;10.34;59.86
61474;BME280;53694;49.784;30.150;2023-04-24T02:07:53;99471.48;;;10.35;60.56
61474;BME280;53694;49.784;30.150;2023-04-24T02:08:55;99482.12;;;10.37;60.08
61474;BME280;53694;49.784;30.150;2023-04-24T02:09:56;99471.14;;;10.37;59.71
61474;BME280;53694;49.784;30.150;2023-04-24T02:10:58;99473.06;;;10.36;59.22
61474;BME280;53694;49.784;30.150;2023-04-24T02:11:59;99477.42;;;10.37;58.74
61474;BME280;53694;49.784;30.150;2023-04-24T02:13:01;99475.09;;;10.39;59.62
61474;BME280;53694;49.784;30.150;2023-04-24T02:14:02;99473.92;;;10.40;59.54
61474;BME280;53694;49.784;30.150;2023-04-24T02:15:05;99481.44;;;10.42;59.29
61474;BME280;53694;49.784;30.150;2023-04-24T02:16:07;99481.44;;;10.43;59.86
61474;BME280;53694;49.784;30.150;2023-04-24T02:17:09;99478.34;;;10.45;61.83
61474;BME280;53694;49.784;30.150;2023-04-24T02:18:10;99475.23;;;10.46;63.66
61474;BME280;53694;49.784;30.150;2023-04-24T02:19:12;99478.39;;;10.48;64.58
61474;BME280;53694;49.784;30.150;2023-04-24T02:20:13;99474.06;;;10.47;63.66
61474;BME280;53694;49.784;30.150;2023-04-24T02:21:15;99477.97;;;10.46;63.03
61474;BME280;53694;49.784;30.150;2023-04-24T02:22:17;99474.06;;;10.47;64.47
61474;BME280;53694;49.784;30.150;2023-04-24T02:23:18;99472.90;;;10.48;65.23
61474;BME280;53694;49.784;30.150;2023-04-24T02:24:20;99470.94;;;10.49;66.04
61474;BME280;53694;49.784;30.150;2023-04-24T02:25:22;99471.31;;;10.47;66.62
61474;BME280;53694;49.784;30.150;2023-04-24T02:26:23;99469.73;;;10.46;67.78
61474;BME280;53694;49.784;30.150;2023-04-24T02:27:25;99466.92;;;10.43;68.39
61474;BME280;53694;49.784;30.150;2023-04-24T02:28:27;99460.80;;;10.30;69.41
61474;BME280;53694;49.784;30.150;2023-04-24T02:29:29;99460.80;;;10.30;69.41
61474;BME280;53694;49.784;30.150;2023-04-24T02:30:30;99458.36;;;10.25;69.88
61474;BME280;53694;49.784;30.150;2023-04-24T02:31:32;99457.47;;;10.21;69.63
61474;BME280;53694;49.784;30.150;2023-04-24T02:32:33;99460.51;;;10.16;69.05
61474;BME280;53694;49.784;30.150;2023-04-24T02:33:35;99462.80;;;10.14;69.04
61474;BME280;53694;49.784;30.150;2023-04-24T02:34:37;99466.64;;;10.09;68.72
61474;BME280;53694;49.784;30.150;2023-04-24T02:35:39;99466.56;;;10.06;68.44
61474;BME280;53694;49.784;30.150;2023-04-24T02:36:40;99465.70;;;10.01;68.24
61474;BME280;53694;49.784;30.150;2023-04-24T02:37:42;99462.53;;;9.99;68.40
61474;BME280;53694;49.784;30.150;2023-04-24T02:38:44;99460.95;;;9.98;69.08
61474;BME280;53694;49.784;30.150;2023-04-24T02:39:45;99463.70;;;9.98;69.10
61474;BME280;53694;49.784;30.150;2023-04-24T02:40:47;99461.67;;;9.95;68.73
61474;BME280;53694;49.784;30.150;2023-04-24T02:41:48;99463.96;;;9.93;68.65
61474;BME280;53694;49.784;30.150;2023-04-24T02:42:50;99467.08;;;9.92;69.17
61474;BME280;53694;49.784;30.150;2023-04-24T02:43:51;99463.09;;;9.89;69.40
61474;BME280;53694;49.784;30.150;2023-04-24T02:44:53;99466.28;;;9.91;69.86
61474;BME280;53694;49.784;30.150;2023-04-24T02:45:55;99463.17;;;9.93;70.27
61474;BME280;53694;49.784;30.150;2023-04-24T02:46:56;99458.92;;;9.95;69.72
61474;BME280;53694;49.784;30.150;2023-04-24T02:47:58;99459.79;;;9.99;70.48
61474;BME280;53694;49.784;30.150;2023-04-24T02:48:59;99462.39;;;10.12;70.55
61474;BME280;53694;49.784;30.150;2023-04-24T02:50:02;99461.59;;;10.31;69.41
61474;BME280;53694;49.784;30.150;2023-04-24T02:51:04;99460.03;;;10.53;67.93
61474;BME280;53694;49.784;30.150;2023-04-24T02:52:05;99467.98;;;10.81;66.12
61474;BME280;53694;49.784;30.150;2023-04-24T02:53:07;99468.55;;;11.16;63.58
61474;BME280;53694;49.784;30.150;2023-04-24T02:54:08;99468.55;;;11.16;63.58
61474;BME280;53694;49.784;30.150;2023-04-24T02:55:10;99465.45;;;11.18;62.95
61474;BME280;53694;49.784;30.150;2023-04-24T02:56:12;99466.91;;;11.12;62.34
61474;BME280;53694;49.784;30.150;2023-04-24T02:57:13;99465.97;;;11.00;62.21
61474;BME280;53694;49.784;30.150;2023-04-24T02:58:15;99472.38;;;10.85;62.32
61474;BME280;53694;49.784;30.150;2023-04-24T02:59:16;99468.95;;;10.69;62.60
61474;BME280;53694;49.784;30.150;2023-04-24T03:00:18;99473.76;;;10.53;62.82
61474;BME280;53694;49.784;30.150;2023-04-24T03:01:22;99469.59;;;10.39;63.49
61474;BME280;53694;49.784;30.150;2023-04-24T03:02:23;99462.23;;;10.24;64.19
61474;BME280;53694;49.784;30.150;2023-04-24T03:03:25;99466.71;;;10.13;64.62
61474;BME280;53694;49.784;30.150;2023-04-24T03:04:26;99465.70;;;10.01;64.95
61474;BME280;53694;49.784;30.150;2023-04-24T03:05:28;99465.42;;;9.87;65.43
61474;BME280;53694;49.784;30.150;2023-04-24T03:06:30;99461.64;;;9.76;65.92
61474;BME280;53694;49.784;30.150;2023-04-24T03:07:31;99467.70;;;9.66;66.64
61474;BME280;53694;49.784;30.150;2023-04-24T03:08:33;99466.75;;;9.58;67.36
61474;BME280;53694;49.784;30.150;2023-04-24T03:09:35;99471.73;;;9.53;68.05
61474;BME280;53694;49.784;30.150;2023-04-24T03:10:36;99481.73;;;9.45;67.81
61474;BME280;53694;49.784;30.150;2023-04-24T03:11:38;99485.47;;;9.37;68.18
61474;BME280;53694;49.784;30.150;2023-04-24T03:12:39;99481.76;;;9.29;69.15
61474;BME280;53694;49.784;30.150;2023-04-24T03:13:41;99482.03;;;9.24;70.10
61474;BME280;53694;49.784;30.150;2023-04-24T03:14:43;99484.27;;;9.18;69.05
61474;BME280;53694;49.784;30.150;2023-04-24T03:15:45;99490.02;;;9.13;69.22
61474;BME280;53694;49.784;30.150;2023-04-24T03:16:46;99480.28;;;9.16;69.74
61474;BME280;53694;49.784;30.150;2023-04-24T03:17:48;99483.63;;;9.25;69.99
61474;BME280;53694;49.784;30.150;2023-04-24T03:18:49;99489.70;;;9.34;70.56
61474;BME280;53694;49.784;30.150;2023-04-24T03:19:51;99483.17;;;9.39;69.93
61474;BME280;53694;49.784;30.150;2023-04-24T03:20:53;99474.50;;;9.37;69.70
61474;BME280;53694;49.784;30.150;2023-04-24T03:21:54;99480.07;;;9.40;69.46
61474;BME280;53694;49.784;30.150;2023-04-24T03:22:56;99480.24;;;9.47;69.58
61474;BME280;53694;49.784;30.150;2023-04-24T03:23:58;99474.89;;;9.55;69.56
61474;BME280;53694;49.784;30.150;2023-04-24T03:25:00;99481.25;;;9.59;69.40
61474;BME280;53694;49.784;30.150;2023-04-24T03:26:01;99479.67;;;9.58;68.85
61474;BME280;53694;49.784;30.150;2023-04-24T03:27:03;99484.70;;;9.56;68.01
61474;BME280;53694;49.784;30.150;2023-04-24T03:28:05;99484.98;;;9.50;68.93
61474;BME280;53694;49.784;30.150;2023-04-24T03:29:06;99485.27;;;9.45;69.27
61474;BME280;53694;49.784;30.150;2023-04-24T03:30:09;99483.17;;;9.39;67.72
61474;BME280;53694;49.784;30.150;2023-04-24T03:31:11;99475.58;;;9.32;66.78
61474;BME280;53694;49.784;30.150;2023-04-24T03:32:12;99476.19;;;9.25;65.90
61474;BME280;53694;49.784;30.150;2023-04-24T03:33:14;99482.74;;;9.21;64.31
61474;BME280;53694;49.784;30.150;2023-04-24T03:34:15;99483.90;;;9.20;65.23
61474;BME280;53694;49.784;30.150;2023-04-24T03:35:17;99483.47;;;9.18;65.78
61474;BME280;53694;49.784;30.150;2023-04-24T03:36:18;99480.28;;;9.16;65.97
61474;BME280;53694;49.784;30.150;2023-04-24T03:37:20;99480.98;;;9.13;65.46
61474;BME280;53694;49.784;30.150;2023-04-24T03:38:22;99479.39;;;9.12;65.09
61474;BME280;53694;49.784;30.150;2023-04-24T03:39:23;99479.39;;;9.12;64.92
61474;BME280;53694;49.784;30.150;2023-04-24T03:40:25;99479.39;;;9.12;64.52
61474;BME280;53694;49.784;30.150;2023-04-24T03:41:27;99472.76;;;9.13;64.45
61474;BME280;53694;49.784;30.150;2023-04-24T03:42:28;99474.38;;;9.14;63.99
61474;BME280;53694;49.784;30.150;2023-04-24T03:43:30;99484.17;;;9.15;63.98
61474;BME280;53694;49.784;30.150;2023-04-24T03:44:32;99485.33;;;9.14;64.87
61474;BME280;53694;49.784;30.150;2023-04-24T03:45:33;99485.33;;;9.14;64.83
61474;BME280;53694;49.784;30.150;2023-04-24T03:46:35;99485.33;;;9.14;65.63
61474;BME280;53694;49.784;30.150;2023-04-24T03:47:37;99486.55;;;9.16;66.37
61474;BME280;53694;49.784;30.150;2023-04-24T03:48:38;99487.80;;;9.19;66.16
61474;BME280;53694;49.784;30.150;2023-04-24T03:49:40;99486.64;;;9.20;65.47
61474;BME280;53694;49.784;30.150;2023-04-24T03:50:42;99495.31;;;9.22;65.78
61474;BME280;53694;49.784;30.150;2023-04-24T03:51:44;99491.05;;;9.24;66.81
61474;BME280;53694;49.784;30.150;2023-04-24T03:52:45;99488.77;;;9.26;67.82
61474;BME280;53694;49.784;30.150;2023-04-24T03:53:47;99486.08;;;9.30;67.91
61474;BME280;53694;49.784;30.150;2023-04-24T03:54:49;99483.00;;;9.32;67.57
61474;BME280;53694;49.784;30.150;2023-04-24T03:55:50;99490.86;;;9.33;67.59
61474;BME280;53694;49.784;30.150;2023-04-24T03:56:52;99489.36;;;9.36;67.38
61474;BME280;53694;49.784;30.150;2023-04-24T03:57:54;99484.67;;;9.36;67.27
61474;BME280;53694;49.784;30.150;2023-04-24T03:58:55;99492.10;;;9.36;67.12
61474;BME280;53694;49.784;30.150;2023-04-24T03:59:57;99488.57;;;9.35;66.78
61474;BME280;53694;49.784;30.150;2023-04-24T04:00:58;99497.92;;;9.34;66.97
61474;BME280;53694;49.784;30.150;2023-04-24T04:02:00;99501.03;;;9.33;67.73
61474;BME280;53694;49.784;30.150;2023-04-24T04:03:02;99505.72;;;9.32;68.06
61474;BME280;53694;49.784;30.150;2023-04-24T04:04:04;99494.67;;;9.29;68.42
61474;BME280;53694;49.784;30.150;2023-04-24T04:05:07;99495.03;;;9.27;68.46
61474;BME280;53694;49.784;30.150;2023-04-24T04:06:10;99493.45;;;9.26;68.66
61474;BME280;53694;49.784;30.150;2023-04-24T04:07:11;99493.45;;;9.26;68.61
61474;BME280;53694;49.784;30.150;2023-04-24T04:08:13;99489.09;;;9.25;68.86
61474;BME280;53694;49.784;30.150;2023-04-24T04:09:15;99485.23;;;9.26;69.62
61474;BME280;53694;49.784;30.150;2023-04-24T04:10:16;99489.98;;;9.29;70.08
61474;BME280;53694;49.784;30.150;2023-04-24T04:11:18;99490.06;;;9.33;70.36
61474;BME280;53694;49.784;30.150;2023-04-24T04:12:19;99487.84;;;9.38;71.11
61474;BME280;53694;49.784;30.150;2023-04-24T04:13:21;99486.14;;;9.49;70.95
61474;BME280;53694;49.784;30.150;2023-04-24T04:14:23;99486.33;;;9.76;70.51
61474;BME280;53694;49.784;30.150;2023-04-24T04:15:24;99485.47;;;10.11;69.33
61474;BME280;53694;49.784;30.150;2023-04-24T04:16:26;99489.81;;;10.50;67.86
61474;BME280;53694;49.784;30.150;2023-04-24T04:17:27;99496.48;;;10.95;66.78
61474;BME280;53694;49.784;30.150;2023-04-24T04:18:29;99494.73;;;11.33;65.92
61474;BME280;53694;49.784;30.150;2023-04-24T04:19:31;99498.23;;;11.57;64.13
61474;BME280;53694;49.784;30.150;2023-04-24T04:20:33;99503.82;;;11.64;63.22
61474;BME280;53694;49.784;30.150;2023-04-24T04:21:34;99500.66;;;11.62;62.76
61474;BME280;53694;49.784;30.150;2023-04-24T04:22:37;99506.05;;;11.55;62.07
61474;BME280;53694;49.784;30.150;2023-04-24T04:23:38;99507.87;;;11.43;61.87
61474;BME280;53694;49.784;30.150;2023-04-24T04:24:40;99511.98;;;11.30;61.75
61474;BME280;53694;49.784;30.150;2023-04-24T04:25:41;99517.23;;;11.16;61.66
61474;BME280;53694;49.784;30.150;2023-04-24T04:26:45;99515.84;;;11.03;61.64
61474;BME280;53694;49.784;30.150;2023-04-24T04:27:47;99505.83;;;10.91;62.55
61474;BME280;53694;49.784;30.150;2023-04-24T04:28:48;99509.56;;;10.79;63.31
61474;BME280;53694;49.784;30.150;2023-04-24T04:29:50;99510.94;;;10.69;63.70
61474;BME280;53694;49.784;30.150;2023-04-24T04:30:52;99498.98;;;10.58;63.68
61474;BME280;53694;49.784;30.150;2023-04-24T04:31:54;99502.75;;;10.50;64.17
61474;BME280;53694;49.784;30.150;2023-04-24T04:32:56;99506.52;;;10.42;64.69
61474;BME280;53694;49.784;30.150;2023-04-24T04:33:57;99511.07;;;10.34;65.29
61474;BME280;53694;49.784;30.150;2023-04-24T04:34:59;99502.69;;;10.27;64.80
61474;BME280;53694;49.784;30.150;2023-04-24T04:36:01;99502.16;;;10.21;65.16
61474;BME280;53694;49.784;30.150;2023-04-24T04:37:03;99504.41;;;10.16;65.75
61474;BME280;53694;49.784;30.150;2023-04-24T04:38:05;99511.41;;;10.13;66.26
61474;BME280;53694;49.784;30.150;2023-04-24T04:39:06;99505.84;;;10.10;65.51
61474;BME280;53694;49.784;30.150;2023-04-24T04:40:08;99508.96;;;10.08;65.16
61474;BME280;53694;49.784;30.150;2023-04-24T04:41:10;99509.30;;;10.07;64.89
61474;BME280;53694;49.784;30.150;2023-04-24T04:42:11;99504.55;;;10.04;64.94
61474;BME280;53694;49.784;30.150;2023-04-24T04:43:13;99500.23;;;10.03;64.91
61474;BME280;53694;49.784;30.150;2023-04-24T04:44:15;99502.97;;;10.03;64.90
61474;BME280;53694;49.784;30.150;2023-04-24T04:45:17;99500.57;;;10.01;65.60
61474;BME280;53694;49.784;30.150;2023-04-24T04:46:19;99504.11;;;10.01;65.79
61474;BME280;53694;49.784;30.150;2023-04-24T04:47:21;99505.72;;;10.03;65.76
61474;BME280;53694;49.784;30.150;2023-04-24T04:48:23;99509.59;;;10.01;65.37
61474;BME280;53694;49.784;30.150;2023-04-24T04:49:24;99511.20;;;10.03;64.94
61474;BME280;53694;49.784;30.150;2023-04-24T04:50:26;99508.46;;;10.03;64.81
61474;BME280;53694;49.784;30.150;2023-04-24T04:51:29;99505.72;;;10.03;64.47
61474;BME280;53694;49.784;30.150;2023-04-24T04:52:30;99503.39;;;10.05;64.12
61474;BME280;53694;49.784;30.150;2023-04-24T04:53:32;99508.17;;;10.08;64.03
61474;BME280;53694;49.784;30.150;2023-04-24T04:54:34;99505.05;;;10.09;63.93
61474;BME280;53694;49.784;30.150;2023-04-24T04:55:36;99506.71;;;10.14;63.32
61474;BME280;53694;49.784;30.150;2023-04-24T04:56:38;99511.86;;;10.15;62.61
61474;BME280;53694;49.784;30.150;2023-04-24T04:57:40;99506.00;;;10.17;62.20
61474;BME280;53694;49.784;30.150;2023-04-24T04:58:41;99509.95;;;10.19;62.19
61474;BME280;53694;49.784;30.150;2023-04-24T04:59:43;99506.86;;;10.21;62.63
61474;BME280;53694;49.784;30.150;2023-04-24T05:00:45;99503.75;;;10.22;62.31
61474;BME280;53694;49.784;30.150;2023-04-24T05:01:47;99503.41;;;10.24;61.79
61474;BME280;53694;49.784;30.150;2023-04-24T05:02:48;99514.12;;;10.29;61.49
61474;BME280;53694;49.784;30.150;2023-04-24T05:03:50;99507.53;;;10.34;61.33
61474;BME280;53694;49.784;30.150;2023-04-24T05:04:51;99502.91;;;10.38;60.82
61474;BME280;53694;49.784;30.150;2023-04-24T05:05:53;99501.82;;;10.42;60.67
61474;BME280;53694;49.784;30.150;2023-04-24T05:06:54;99497.98;;;10.47;60.29
61474;BME280;53694;49.784;30.150;2023-04-24T05:07:56;99502.38;;;10.51;59.31
61474;BME280;53694;49.784;30.150;2023-04-24T05:08:58;99507.94;;;10.55;59.16
61474;BME280;53694;49.784;30.150;2023-04-24T05:09:59;99506.55;;;10.65;58.77
61474;BME280;53694;49.784;30.150;2023-04-24T05:11:01;99506.55;;;10.65;58.77
61474;BME280;53694;49.784;30.150;2023-04-24T05:12:03;99507.84;;;10.71;59.21
61474;BME280;53694;49.784;30.150;2023-04-24T05:13:05;99502.84;;;10.76;59.01
61474;BME280;53694;49.784;30.150;2023-04-24T05:14:07;99505.66;;;10.80;58.39
61474;BME280;53694;49.784;30.150;2023-04-24T05:15:09;99508.09;;;10.85;57.51
61474;BME280;53694;49.784;30.150;2023-04-24T05:16:12;99499.91;;;10.89;57.46
61474;BME280;53694;49.784;30.150;2023-04-24T05:17:13;99509.02;;;10.93;57.43
61474;BME280;53694;49.784;30.150;2023-04-24T05:18:15;99506.74;;;10.98;57.48
61474;BME280;53694;49.784;30.150;2023-04-24T05:19:16;99507.59;;;11.03;57.20
61474;BME280;53694;49.784;30.150;2023-04-24T05:20:18;99508.45;;;11.07;56.93
61474;BME280;53694;49.784;30.150;2023-04-24T05:21:20;99503.40;;;11.09;56.95
61474;BME280;53694;49.784;30.150;2023-04-24T05:22:22;99501.47;;;11.13;57.23
61474;BME280;53694;49.784;30.150;2023-04-24T05:23:23;99503.14;;;11.17;57.53
61474;BME280;53694;49.784;30.150;2023-04-24T05:24:25;99502.03;;;11.22;57.58